首页
METAR-TAF:

METAR-TAF

机场 :

渥太华麦克唐纳-卡蒂埃国际机场

渥太華, 安大略省, 加拿大

纬度: 45-19N, 经度: 075-40W, 海拔: 116米

当前天气观测

该预报发布于53分钟前的17:00 UTC
风速6节,风向西转西北
温度 1°C
湿度 75%
气压 1018 hPa
能見度: 24.1公里
少量云层高于3500英尺
多云层高于8300英尺

METAR: CYOW 201700Z 30006KT 15SM FEW035 BKN083 01/M03 A3005 RMK SC1AC7 SC TR SLP183

时间: 12:53 (17:53 UTC)

预报

该预报发布于15分钟前的17:38 UTC
预报有效从20日的 18点(UTC)到 21日的 18点(UTC)
风速6节,风向西转西北
能見度: 10公里
多云层高于8000英尺
多云层高于10000英尺
从 20日的 2100点(UTC)
风速7节,风向西
能見度: 10公里
散云层高于10000英尺
从 21日的 0500点(UTC)
风速6节,风向西转西北
能見度: 10公里
少量云层高于500英尺
散云层高于3000英尺
几率 30%
从 21日的 05点(UTC)到 21日的 11点(UTC)
能見度: 0.8公里
层高于200英尺
从 21日的 1100点(UTC)
风速3节,风向多变
能見度: 3.2公里
多云层高于500英尺
阴天层高于1200英尺
轻雾
几率 40%
从 21日的 11点(UTC)到 21日的 16点(UTC)
能見度: 0.8公里
层高于200英尺
从 21日的 1600点(UTC)
风速3节,风向多变
能見度: 9.7公里
散云层高于500英尺
阴天层高于1200英尺
轻雾

TAF: CYOW 201738Z 2018/2118 30006KT P6SM BKN080 BKN100 FM202100 28007KT P6SM SCT100 FM210500 29006KT P6SM FEW005 SCT030 PROB30 2105/2111 1/2SM FG VV002 FM211100 VRB03KT 2SM BR BKN005 OVC012 PROB40 2111/2116 1/2SM FG VV002 FM211600 VRB03KT 6SM BR SCT005 OVC012 RMK NXT FCST BY 202100Z

超过4000个机场的气象观测和天气预报(METAR&TAF报告)。

可查询的气象台以黄色和红色小点在地图上表示。

将鼠标移到小点上方,可查看气象台名称。

然后点击查看天气观测和预报。

如需切换地图:点击带黑十字的绿色按钮放大地图;点击带横线的绿色按钮缩小地图;或者点击绿色箭头查看邻近地区的地图。


METAR-TAF: